createdAt,value
2018-07-05T00:00:30.556Z,98073.59
2018-07-05T00:03:09.996Z,98069.27
2018-07-05T00:05:49.630Z,98075.12
2018-07-05T00:08:29.271Z,98069.62
2018-07-05T00:11:08.893Z,98065.60
2018-07-05T00:13:48.503Z,98071.95
2018-07-05T00:16:28.122Z,98070.95
2018-07-05T00:19:07.687Z,98064.45
2018-07-05T00:21:47.295Z,98061.61
2018-07-05T00:24:26.827Z,98059.11
2018-07-05T00:27:06.379Z,98054.95
2018-07-05T00:29:46.025Z,98057.94
2018-07-05T00:32:25.541Z,98053.73
2018-07-05T00:35:05.158Z,98053.57
2018-07-05T00:37:44.659Z,98055.74
2018-07-05T00:40:24.351Z,98052.89
2018-07-05T00:43:03.874Z,98053.21
2018-07-05T00:45:43.481Z,98049.05
2018-07-05T00:48:23.084Z,98047.55
2018-07-05T00:51:02.833Z,98047.06
2018-07-05T00:53:42.309Z,98052.02
2018-07-05T00:56:21.859Z,98057.16
2018-07-05T00:59:01.451Z,98054.98
2018-07-05T01:01:41.117Z,98056.46
2018-07-05T01:04:20.759Z,98051.11
2018-07-05T01:07:00.419Z,98057.10
2018-07-05T01:09:40.072Z,98061.78
2018-07-05T01:12:19.675Z,98064.56
2018-07-05T01:14:59.281Z,98056.03
2018-07-05T01:17:38.683Z,98058.45
2018-07-05T01:20:18.414Z,98061.09
2018-07-05T01:22:57.919Z,98063.89
2018-07-05T01:25:37.488Z,98061.23
2018-07-05T01:28:17.281Z,98055.10
2018-07-05T01:30:57.091Z,98051.63
2018-07-05T01:33:36.663Z,98055.23
2018-07-05T01:36:16.262Z,98057.65
2018-07-05T01:38:55.942Z,98059.20
2018-07-05T01:41:35.402Z,98060.61
2018-07-05T01:44:14.964Z,98072.84
2018-07-05T01:46:54.575Z,98078.47
2018-07-05T01:49:34.224Z,98081.06
2018-07-05T01:52:14.213Z,98079.33
2018-07-05T01:54:54.322Z,98081.23
2018-07-05T01:57:34.577Z,98070.06
2018-07-05T02:00:14.340Z,98071.53
2018-07-05T02:02:54.676Z,98071.44
2018-07-05T02:05:34.955Z,98071.87
2018-07-05T02:08:14.499Z,98072.36
2018-07-05T02:10:54.149Z,98073.20
2018-07-05T02:13:33.610Z,98074.28
2018-07-05T02:16:13.288Z,98064.97
2018-07-05T02:18:52.912Z,98066.55
2018-07-05T02:21:32.537Z,98064.95
2018-07-05T02:24:12.277Z,98070.84
2018-07-05T02:26:52.097Z,98079.06
2018-07-05T02:29:31.678Z,98073.43
2018-07-05T02:32:11.534Z,98073.61
2018-07-05T02:34:51.053Z,98075.20
2018-07-05T02:37:35.752Z,98080.45
2018-07-05T02:40:15.342Z,98071.55
2018-07-05T02:42:54.907Z,98065.75
2018-07-05T02:45:34.460Z,98064.42
2018-07-05T02:48:14.013Z,98063.10
2018-07-05T02:50:53.406Z,98059.91
2018-07-05T02:53:33.085Z,98049.08
2018-07-05T02:56:12.632Z,98051.00
2018-07-05T02:58:52.369Z,98056.10
2018-07-05T03:01:31.823Z,98059.28
2018-07-05T03:04:11.519Z,98066.41
2018-07-05T03:06:51.177Z,98061.09
2018-07-05T03:09:30.856Z,98064.52
2018-07-05T03:12:10.327Z,98067.63
2018-07-05T03:14:49.984Z,98070.58
2018-07-05T03:17:29.447Z,98065.55
2018-07-05T03:20:09.461Z,98060.89
2018-07-05T03:22:48.919Z,98054.77
2018-07-05T03:25:28.641Z,98050.53
2018-07-05T03:28:08.161Z,98049.61
2018-07-05T03:30:47.645Z,98059.77
2018-07-05T03:33:27.057Z,98063.56
2018-07-05T03:36:06.603Z,98060.45
2018-07-05T03:38:46.233Z,98058.23
2018-07-05T03:41:26.164Z,98062.19
2018-07-05T03:44:05.634Z,98060.56
2018-07-05T03:46:45.196Z,98059.37
2018-07-05T03:49:24.942Z,98054.22
2018-07-05T03:52:04.469Z,98060.05
2018-07-05T03:54:43.931Z,98062.40
2018-07-05T03:57:23.476Z,98066.00
2018-07-05T04:00:03.016Z,98067.33
2018-07-05T04:02:42.696Z,98070.94
2018-07-05T04:05:22.288Z,98082.33
2018-07-05T04:08:01.696Z,98077.85
2018-07-05T04:10:41.243Z,98079.11
2018-07-05T04:13:20.747Z,98086.27
2018-07-05T04:16:00.319Z,98086.14
2018-07-05T04:22:22.249Z,98077.84
2018-07-05T04:25:01.949Z,98072.28
2018-07-05T04:27:41.545Z,98072.94
2018-07-05T04:30:21.052Z,98063.86
2018-07-05T04:33:00.719Z,98064.39
2018-07-05T04:35:40.203Z,98064.39
2018-07-05T04:38:19.816Z,98060.98
2018-07-05T04:41:00.275Z,98058.70
2018-07-05T04:43:39.979Z,98056.92
2018-07-05T04:46:19.488Z,98051.48
2018-07-05T04:48:59.160Z,98059.33
2018-07-05T04:51:39.008Z,98046.10
2018-07-05T04:54:18.733Z,98046.77
2018-07-05T04:56:58.128Z,98048.81
2018-07-05T04:59:37.630Z,98043.87
2018-07-05T05:02:17.434Z,98047.02
2018-07-05T05:04:56.916Z,98040.55
2018-07-05T05:07:36.471Z,98035.53
2018-07-05T05:10:16.095Z,98032.41
2018-07-05T05:12:55.591Z,98039.90
2018-07-05T05:15:35.498Z,98042.75
2018-07-05T05:18:15.124Z,98042.59
2018-07-05T05:20:54.751Z,98044.95
2018-07-05T05:23:34.275Z,98043.63
2018-07-05T05:26:13.843Z,98043.93
2018-07-05T05:28:53.538Z,98034.75
2018-07-05T05:31:33.023Z,98034.43
2018-07-05T05:34:12.545Z,98037.58
2018-07-05T05:36:52.170Z,98043.41
2018-07-05T05:39:31.784Z,98031.38
2018-07-05T05:42:11.340Z,98031.22
2018-07-05T05:44:50.959Z,98026.39
2018-07-05T05:47:30.607Z,98030.48
2018-07-05T05:50:10.046Z,98025.80
2018-07-05T05:52:49.550Z,98026.27
2018-07-05T05:55:29.224Z,98036.78
2018-07-05T05:58:08.678Z,98031.95
2018-07-05T06:00:48.176Z,98037.40
2018-07-05T06:03:27.824Z,98039.72
2018-07-05T06:06:07.307Z,98037.44
2018-07-05T06:08:46.960Z,98040.66
2018-07-05T06:11:26.550Z,98049.03
2018-07-05T06:14:06.206Z,98045.81
2018-07-05T06:16:45.865Z,98049.63
2018-07-05T06:19:25.271Z,98042.25
2018-07-05T06:22:04.782Z,98039.64
2018-07-05T06:24:44.479Z,98033.23
2018-07-05T06:27:24.156Z,98036.64
2018-07-05T06:30:03.686Z,98034.95
2018-07-05T06:32:43.176Z,98030.62
2018-07-05T06:35:22.671Z,98025.00
2018-07-05T06:38:02.340Z,98022.17
2018-07-05T06:40:42.017Z,98025.27
2018-07-05T06:43:21.524Z,98027.27
2018-07-05T06:46:01.123Z,98028.53
2018-07-05T06:48:40.648Z,98032.19
2018-07-05T06:51:20.267Z,98023.97
2018-07-05T06:53:59.903Z,98020.92
2018-07-05T06:56:39.437Z,98025.89
2018-07-05T06:59:19.059Z,98031.27
2018-07-05T07:01:58.739Z,98027.73
2018-07-05T07:04:38.435Z,98026.67
2018-07-05T07:07:18.119Z,98018.55
2018-07-05T07:09:57.728Z,98016.53
2018-07-05T07:12:37.227Z,98007.35
2018-07-05T07:15:16.841Z,98005.55
2018-07-05T07:17:56.477Z,98004.14
2018-07-05T07:20:36.267Z,98002.61
2018-07-05T07:23:15.696Z,98002.82
2018-07-05T07:25:55.290Z,97995.63
2018-07-05T07:28:34.968Z,97988.70
2018-07-05T07:31:14.521Z,97990.80
2018-07-05T07:33:54.124Z,97984.34
2018-07-05T07:36:33.723Z,97981.81
2018-07-05T07:39:13.228Z,97980.73
2018-07-05T07:41:45.358Z,97977.21
2018-07-05T07:44:12.595Z,97971.63
2018-07-05T07:46:39.839Z,97960.58
2018-07-05T07:49:07.488Z,97964.67
2018-07-05T07:51:34.714Z,97962.73
2018-07-05T07:54:01.956Z,97963.34
2018-07-05T07:56:29.232Z,97956.48
2018-07-05T07:58:56.454Z,97960.52
2018-07-05T08:01:23.692Z,97952.38
2018-07-05T08:03:50.938Z,97944.27
2018-07-05T08:06:18.185Z,97943.86
2018-07-05T08:08:45.539Z,97946.20
2018-07-05T08:11:12.757Z,97947.95
2018-07-05T08:13:39.971Z,97947.52
2018-07-05T08:16:07.235Z,97949.73
2018-07-05T08:18:34.468Z,97953.55
2018-07-05T08:21:01.738Z,97943.31
2018-07-05T08:23:28.971Z,97953.03
2018-07-05T08:25:56.210Z,97941.00
2018-07-05T08:28:23.459Z,97942.89
2018-07-05T08:30:50.671Z,97944.53
2018-07-05T08:33:17.929Z,97939.43
2018-07-05T08:35:45.148Z,97942.43
2018-07-05T08:38:12.397Z,97936.41
2018-07-05T08:40:42.663Z,97932.36
2018-07-05T08:43:09.876Z,97934.36
2018-07-05T08:45:37.151Z,97932.23
2018-07-05T08:48:04.380Z,97929.11
2018-07-05T08:50:31.678Z,97923.86
2018-07-05T08:52:58.940Z,97926.15
2018-07-05T08:55:26.150Z,97922.83
2018-07-05T08:57:53.406Z,97927.34
2018-07-05T09:00:20.628Z,97923.38
2018-07-05T09:02:47.907Z,97926.67
2018-07-05T09:05:15.202Z,97925.16
2018-07-05T09:07:42.832Z,97929.33
2018-07-05T09:10:10.067Z,97927.70
2018-07-05T09:12:37.271Z,97929.73
2018-07-05T09:15:04.512Z,97928.78
2018-07-05T09:17:31.791Z,97926.92
2018-07-05T09:19:59.010Z,97923.38
2018-07-05T09:22:26.273Z,97914.43
2018-07-05T09:24:54.304Z,97916.23
2018-07-05T09:27:21.600Z,97914.09
2018-07-05T09:29:48.842Z,97913.17
2018-07-05T09:32:16.080Z,97912.70
2018-07-05T09:34:43.310Z,97912.47
2018-07-05T09:37:10.598Z,97907.07
2018-07-05T09:39:37.817Z,97893.20
2018-07-05T09:42:05.046Z,97892.72
2018-07-05T09:44:32.326Z,97887.17
2018-07-05T09:46:59.608Z,97885.27
2018-07-05T09:49:26.812Z,97888.54
2018-07-05T09:51:54.046Z,97882.78
2018-07-05T09:54:21.276Z,97876.69
2018-07-05T09:56:48.558Z,97874.99
2018-07-05T09:59:17.751Z,97871.84
2018-07-05T10:01:44.991Z,97860.95
2018-07-05T10:04:12.219Z,97867.58
2018-07-05T10:06:39.461Z,97860.42
2018-07-05T10:09:06.896Z,97861.46
2018-07-05T10:11:34.795Z,97859.20
2018-07-05T10:14:02.009Z,97855.22
2018-07-05T10:16:29.347Z,97850.22
2018-07-05T10:18:56.615Z,97849.22
2018-07-05T10:21:23.843Z,97842.38
2018-07-05T10:23:51.071Z,97843.87
2018-07-05T10:26:18.715Z,97839.28
2018-07-05T10:28:58.167Z,97835.52
2018-07-05T10:31:37.711Z,97835.56
2018-07-05T10:34:04.926Z,97829.00
2018-07-05T10:36:32.153Z,97825.58
2018-07-05T10:38:59.406Z,97821.31
2018-07-05T10:41:39.079Z,97817.71
2018-07-05T10:44:18.731Z,97822.34
2018-07-05T10:46:58.213Z,97820.53
2018-07-05T10:49:37.768Z,97818.31
2018-07-05T10:52:17.291Z,97814.13
2018-07-05T10:54:56.964Z,97807.13
2018-07-05T10:57:36.517Z,97803.86
2018-07-05T11:00:16.066Z,97810.69
2018-07-05T11:02:55.540Z,97815.05
2018-07-05T11:05:35.327Z,97808.75
2018-07-05T11:08:15.023Z,97801.92
2018-07-05T11:10:54.622Z,97797.72
2018-07-05T11:13:34.100Z,97797.70
2018-07-05T11:16:13.540Z,97802.44
2018-07-05T11:18:52.987Z,97799.89
2018-07-05T11:21:32.639Z,97779.51
2018-07-05T11:24:12.072Z,97783.17
2018-07-05T11:26:51.559Z,97789.87
2018-07-05T11:29:31.087Z,97777.27
2018-07-05T11:32:10.740Z,97774.05
2018-07-05T11:34:50.367Z,97775.00
2018-07-05T11:37:29.908Z,97777.55
2018-07-05T11:40:09.536Z,97763.59
2018-07-05T11:42:48.928Z,97767.41
2018-07-05T11:45:28.544Z,97754.28
2018-07-05T11:48:08.211Z,97756.07
2018-07-05T11:50:47.833Z,97760.64
2018-07-05T11:53:27.244Z,97750.22
2018-07-05T11:56:06.928Z,97743.09
2018-07-05T11:58:46.515Z,97747.64
2018-07-05T12:01:26.053Z,97738.27
2018-07-05T12:04:05.704Z,97732.36
2018-07-05T12:06:45.208Z,97733.47
2018-07-05T12:09:25.809Z,97728.01
2018-07-05T12:12:05.267Z,97727.48
2018-07-05T12:14:44.875Z,97726.22
2018-07-05T12:17:24.811Z,97732.80
2018-07-05T12:20:04.330Z,97724.87
2018-07-05T12:22:44.018Z,97728.59
2018-07-05T12:25:23.738Z,97721.72
2018-07-05T12:28:03.287Z,97717.84
2018-07-05T12:30:42.796Z,97724.86
2018-07-05T12:33:22.449Z,97723.13
2018-07-05T12:36:01.993Z,97725.25
2018-07-05T12:38:41.632Z,97715.94
2018-07-05T12:41:21.288Z,97718.50
2018-07-05T12:44:00.647Z,97706.23
2018-07-05T12:46:40.176Z,97705.84
2018-07-05T12:49:19.599Z,97705.25
2018-07-05T12:51:59.211Z,97699.71
2018-07-05T12:54:38.770Z,97694.31
2018-07-05T12:57:18.412Z,97702.08
2018-07-05T12:59:58.039Z,97694.97
2018-07-05T13:02:37.591Z,97690.70
2018-07-05T13:05:17.242Z,97685.11
2018-07-05T13:07:56.743Z,97687.59
2018-07-05T13:10:36.302Z,97674.21
2018-07-05T13:13:15.863Z,97670.94
2018-07-05T13:15:55.300Z,97666.19
2018-07-05T13:18:34.968Z,97672.11
2018-07-05T13:21:14.537Z,97669.09
2018-07-05T13:23:54.183Z,97664.05
2018-07-05T13:26:33.856Z,97661.73
2018-07-05T13:29:13.511Z,97664.48
2018-07-05T13:31:53.097Z,97662.61
2018-07-05T13:34:32.566Z,97665.47
2018-07-05T13:37:12.213Z,97660.09
2018-07-05T13:39:51.865Z,97657.78
2018-07-05T13:42:31.291Z,97661.84
2018-07-05T13:45:10.707Z,97664.91
2018-07-05T13:47:50.308Z,97660.25
2018-07-05T13:50:29.770Z,97655.99
2018-07-05T13:53:09.235Z,97655.10
2018-07-05T13:55:48.703Z,97656.77
2018-07-05T13:59:30.924Z,97652.51
2018-07-05T14:02:10.444Z,97659.98
2018-07-05T14:04:49.908Z,97650.16
2018-07-05T14:07:29.504Z,97658.63
2018-07-05T14:10:09.104Z,97645.16
2018-07-05T14:12:48.773Z,97644.16
2018-07-05T14:15:28.472Z,97641.22
2018-07-05T14:18:07.951Z,97643.89
2018-07-05T14:20:47.549Z,97638.45
2018-07-05T14:23:27.084Z,97646.48
2018-07-05T14:26:06.789Z,97638.98
2018-07-05T14:28:46.427Z,97635.10
2018-07-05T14:31:26.130Z,97635.48
2018-07-05T14:34:05.740Z,97629.87
2018-07-05T14:36:45.279Z,97625.70
2018-07-05T14:39:24.915Z,97631.95
2018-07-05T14:42:04.502Z,97628.30
2018-07-05T14:44:44.086Z,97623.55
2018-07-05T14:47:23.707Z,97624.34
2018-07-05T14:50:03.112Z,97624.17
2018-07-05T14:52:42.688Z,97618.29
2018-07-05T14:55:22.167Z,97618.62
2018-07-05T14:58:01.641Z,97620.38
2018-07-05T15:00:41.223Z,97617.94
2018-07-05T15:03:20.927Z,97611.89
2018-07-05T15:06:00.527Z,97607.59
2018-07-05T15:08:40.097Z,97606.78
2018-07-05T15:11:19.631Z,97597.53
2018-07-05T15:13:59.261Z,97588.69
2018-07-05T15:16:38.887Z,97590.72
2018-07-05T15:19:18.450Z,97586.48
2018-07-05T15:21:58.111Z,97578.48
2018-07-05T15:24:37.662Z,97584.89
2018-07-05T15:27:17.250Z,97580.56
2018-07-05T15:29:56.878Z,97589.23
2018-07-05T15:32:36.535Z,97593.91
2018-07-05T15:35:16.190Z,97588.26
2018-07-05T15:37:55.773Z,97590.90
2018-07-05T15:40:35.538Z,97592.27
2018-07-05T15:43:15.058Z,97593.50
2018-07-05T15:49:36.700Z,97582.63
2018-07-05T15:52:16.239Z,97576.38
2018-07-05T15:54:56.244Z,97577.23
2018-07-05T15:57:35.840Z,97578.61
2018-07-05T16:00:18.380Z,97570.61
2018-07-05T16:02:58.078Z,97575.61
2018-07-05T16:05:37.732Z,97580.19
2018-07-05T16:08:17.258Z,97575.56
2018-07-05T16:10:56.852Z,97577.78
2018-07-05T16:13:36.336Z,97580.91
2018-07-05T16:16:16.045Z,97570.45
2018-07-05T16:18:56.801Z,97568.52
2018-07-05T16:21:36.434Z,97573.47
2018-07-05T16:24:16.046Z,97568.95
2018-07-05T16:26:55.787Z,97564.07
2018-07-05T16:29:35.364Z,97557.50
2018-07-05T16:32:14.889Z,97557.85
2018-07-05T16:34:54.632Z,97558.95
2018-07-05T16:37:34.336Z,97561.02
2018-07-05T16:40:13.789Z,97561.59
2018-07-05T16:42:53.475Z,97569.95
2018-07-05T16:45:33.131Z,97565.94
2018-07-05T16:48:13.080Z,97573.73
2018-07-05T16:50:52.765Z,97575.56
2018-07-05T16:53:32.292Z,97577.41
2018-07-05T16:56:12.000Z,97584.86
2018-07-05T16:58:51.606Z,97582.49
2018-07-05T17:01:31.079Z,97590.28
2018-07-05T17:04:10.622Z,97604.34
2018-07-05T17:06:50.201Z,97607.25
2018-07-05T17:09:29.509Z,97604.70
2018-07-05T17:12:09.209Z,97609.45
2018-07-05T17:14:48.836Z,97613.22
2018-07-05T17:17:28.314Z,97601.27
2018-07-05T17:20:07.972Z,97603.19
2018-07-05T17:22:47.367Z,97611.06
2018-07-05T17:25:26.902Z,97614.16
2018-07-05T17:28:06.512Z,97613.00
2018-07-05T17:30:46.211Z,97622.94
2018-07-05T17:33:25.867Z,97616.23
2018-07-05T17:36:05.844Z,97618.47
2018-07-05T17:38:45.292Z,97628.06
2018-07-05T17:41:24.847Z,97629.25
2018-07-05T17:44:04.368Z,97631.48
2018-07-05T17:46:43.982Z,97636.78
2018-07-05T17:49:23.562Z,97637.31
2018-07-05T17:52:03.658Z,97646.42
2018-07-05T17:54:43.150Z,97649.06
2018-07-05T17:57:22.584Z,97655.06
2018-07-05T18:00:03.555Z,97666.41
2018-07-05T18:02:43.444Z,97667.76
2018-07-05T18:05:23.211Z,97700.28
2018-07-05T18:08:02.888Z,97688.64
2018-07-05T18:10:42.251Z,97720.78
2018-07-05T18:13:21.998Z,97708.20
2018-07-05T18:16:01.571Z,97733.66
2018-07-05T18:18:41.098Z,97735.73
2018-07-05T18:21:20.504Z,97744.03
2018-07-05T18:24:00.158Z,97753.70
2018-07-05T18:26:39.786Z,97762.07
2018-07-05T18:29:19.503Z,97769.80
2018-07-05T18:31:59.011Z,97768.84
2018-07-05T18:34:38.830Z,97779.19
2018-07-05T18:37:18.460Z,97784.08
2018-07-05T18:39:58.332Z,97772.01
2018-07-05T18:42:37.882Z,97770.66
2018-07-05T18:45:17.643Z,97781.11
2018-07-05T18:47:57.231Z,97801.91
2018-07-05T18:50:36.776Z,97799.80
2018-07-05T18:53:16.331Z,97821.56
2018-07-05T18:55:56.367Z,97807.80
2018-07-05T18:58:35.964Z,97830.35
2018-07-05T19:01:16.102Z,97846.31
2018-07-05T19:03:56.039Z,97853.59
2018-07-05T19:06:35.647Z,97855.78
2018-07-05T19:09:15.292Z,97851.13
2018-07-05T19:11:54.848Z,97878.32
2018-07-05T19:14:34.505Z,97885.73
2018-07-05T19:17:14.016Z,97890.05
2018-07-05T19:19:54.293Z,97904.78
2018-07-05T19:22:33.973Z,97899.20
2018-07-05T19:25:13.890Z,97898.77
2018-07-05T19:27:53.380Z,97912.27
2018-07-05T19:30:32.866Z,97920.60
2018-07-05T19:33:12.448Z,97926.06
2018-07-05T19:35:52.236Z,97941.35
2018-07-05T19:38:32.088Z,97929.01
2018-07-05T19:41:11.587Z,97925.72
2018-07-05T19:43:51.269Z,97960.52
2018-07-05T19:46:31.680Z,97959.52
2018-07-05T19:49:11.322Z,97966.90
2018-07-05T19:51:50.741Z,97988.95
2018-07-05T19:54:30.129Z,97981.61
2018-07-05T19:57:09.744Z,97970.47
2018-07-05T19:59:49.211Z,97964.07
2018-07-05T20:02:28.890Z,97977.66
2018-07-05T20:05:08.436Z,97976.32
2018-07-05T20:07:48.167Z,97977.56
2018-07-05T20:10:27.784Z,97984.97
2018-07-05T20:13:07.525Z,97994.77
2018-07-05T20:15:47.264Z,98005.02
2018-07-05T20:18:26.608Z,97997.98
2018-07-05T20:21:06.489Z,98015.02
2018-07-05T20:23:45.863Z,98013.84
2018-07-05T20:26:25.458Z,98008.05
2018-07-05T20:29:05.012Z,98019.73
2018-07-05T20:31:44.857Z,98020.92
2018-07-05T20:34:24.427Z,98020.38
2018-07-05T20:37:04.094Z,98023.12
2018-07-05T20:39:43.553Z,98022.95
2018-07-05T20:42:23.177Z,98023.41
2018-07-05T20:45:02.764Z,98031.43
2018-07-05T20:47:42.254Z,98025.46
2018-07-05T20:50:21.824Z,98034.03
2018-07-05T20:53:01.480Z,98035.41
2018-07-05T20:55:41.387Z,98032.75
2018-07-05T20:58:20.887Z,98038.30
2018-07-05T21:01:00.319Z,98039.67
2018-07-05T21:03:39.896Z,98039.14
2018-07-05T21:06:19.309Z,98042.50
2018-07-05T21:08:59.023Z,98049.27
2018-07-05T21:11:38.555Z,98046.89
2018-07-05T21:14:18.040Z,98053.23
2018-07-05T21:16:57.596Z,98057.55
2018-07-05T21:19:37.216Z,98068.38
2018-07-05T21:22:16.739Z,98070.41
2018-07-05T21:24:56.509Z,98074.45
2018-07-05T21:27:36.052Z,98072.39
2018-07-05T21:30:15.871Z,98068.42
2018-07-05T21:32:55.342Z,98070.41
2018-07-05T21:35:35.205Z,98062.09
2018-07-05T21:38:14.737Z,98070.78
2018-07-05T21:40:54.192Z,98065.48
2018-07-05T21:43:33.763Z,98083.19
2018-07-05T21:46:13.485Z,98087.00
2018-07-05T21:48:53.092Z,98093.52
2018-07-05T21:51:33.014Z,98099.55
2018-07-05T21:54:12.528Z,98096.85
2018-07-05T21:56:52.217Z,98098.19
2018-07-05T21:59:31.786Z,98098.68
2018-07-05T22:02:11.496Z,98096.04
2018-07-05T22:04:50.975Z,98105.67
2018-07-05T22:07:30.620Z,98097.28
2018-07-05T22:10:10.315Z,98107.69
2018-07-05T22:12:49.989Z,98081.84
2018-07-05T22:15:29.479Z,98101.70
2018-07-05T22:18:14.380Z,98099.73
2018-07-05T22:20:59.295Z,98095.56
2018-07-05T22:23:44.111Z,98092.23
2018-07-05T22:26:28.897Z,98095.73
2018-07-05T22:29:13.752Z,98095.25
2018-07-05T22:31:56.375Z,98089.58
2018-07-05T22:34:36.104Z,98084.56
2018-07-05T22:37:15.831Z,98091.91
2018-07-05T22:39:55.800Z,98084.91
2018-07-05T22:42:35.837Z,98084.27
2018-07-05T22:45:15.743Z,98088.77
2018-07-05T22:47:55.243Z,98092.78
2018-07-05T22:50:34.939Z,98091.94
2018-07-05T22:53:14.555Z,98087.30
2018-07-05T22:55:54.623Z,98093.45
2018-07-05T22:58:34.700Z,98094.96
2018-07-05T23:01:14.501Z,98096.95
2018-07-05T23:03:55.439Z,98096.28
2018-07-05T23:06:35.061Z,98101.12
2018-07-05T23:09:14.920Z,98097.30
2018-07-05T23:11:54.755Z,98095.28
2018-07-05T23:14:34.428Z,98096.30
2018-07-05T23:17:14.071Z,98102.95
2018-07-05T23:19:53.550Z,98100.28
2018-07-05T23:22:33.093Z,98101.78
2018-07-05T23:25:12.729Z,98107.97
2018-07-05T23:27:52.302Z,98106.11
2018-07-05T23:30:31.856Z,98105.60
2018-07-05T23:33:11.496Z,98106.91
2018-07-05T23:35:51.019Z,98109.27
2018-07-05T23:38:30.620Z,98103.95
2018-07-05T23:41:10.134Z,98093.89
2018-07-05T23:43:50.735Z,98100.44
2018-07-05T23:46:30.251Z,98107.12
2018-07-05T23:49:09.766Z,98106.30
2018-07-05T23:51:49.355Z,98105.29
2018-07-05T23:54:28.809Z,98112.62
2018-07-05T23:57:08.277Z,98113.44
2018-07-05T23:59:47.922Z,98112.11
